createdAt,value
2019-05-13T00:01:07.108Z,64.95
2019-05-13T00:03:38.461Z,64.46
2019-05-13T00:06:09.958Z,64.46
2019-05-13T00:08:43.830Z,65.19
2019-05-13T00:11:13.992Z,65.19
2019-05-13T00:13:46.165Z,65.11
2019-05-13T00:16:17.340Z,64.72
2019-05-13T00:18:48.837Z,64.93
2019-05-13T00:21:19.737Z,64.93
2019-05-13T00:23:50.815Z,64.57
2019-05-13T00:26:21.820Z,64.12
2019-05-13T00:28:53.449Z,64.67
2019-05-13T00:31:24.587Z,64.75
2019-05-13T00:33:55.622Z,64.75
2019-05-13T00:36:27.065Z,65.19
2019-05-13T00:38:58.833Z,64.98
2019-05-13T00:41:29.902Z,65.09
2019-05-13T00:44:01.222Z,65.09
2019-05-13T00:46:34.017Z,65.44
2019-05-13T00:49:05.406Z,65.86
2019-05-13T00:51:36.559Z,65.68
2019-05-13T00:54:08.253Z,65.60
2019-05-13T00:56:39.329Z,65.60
2019-05-13T00:59:10.866Z,66.37
2019-05-13T01:01:44.100Z,66.37
2019-05-13T01:04:15.279Z,67.04
2019-05-13T01:06:46.650Z,67.04
2019-05-13T01:09:17.793Z,67.00
2019-05-13T01:11:48.972Z,67.30
2019-05-13T01:14:20.028Z,67.30
2019-05-13T01:16:51.440Z,67.09
2019-05-13T01:19:23.699Z,67.06
2019-05-13T01:21:55.403Z,67.48
2019-05-13T01:24:26.418Z,67.48
2019-05-13T01:26:58.269Z,68.17
2019-05-13T01:29:30.943Z,68.26
2019-05-13T01:32:04.468Z,68.26
2019-05-13T01:34:35.288Z,68.12
2019-05-13T01:37:06.734Z,67.78
2019-05-13T01:39:38.309Z,68.09
2019-05-13T01:42:09.514Z,67.88
2019-05-13T01:44:43.632Z,67.72
2019-05-13T01:47:13.988Z,67.80
2019-05-13T01:49:45.243Z,67.63
2019-05-13T01:52:16.501Z,67.78
2019-05-13T01:54:47.650Z,68.03
2019-05-13T01:57:19.018Z,67.92
2019-05-13T01:59:50.431Z,68.22
2019-05-13T02:02:24.255Z,68.05
2019-05-13T02:04:55.271Z,68.16
2019-05-13T02:07:26.867Z,68.29
2019-05-13T02:09:59.271Z,68.00
2019-05-13T02:12:30.744Z,67.73
2019-05-13T02:15:04.317Z,67.56
2019-05-13T02:17:34.912Z,67.81
2019-05-13T02:20:06.566Z,68.06
2019-05-13T02:22:37.507Z,68.06
2019-05-13T02:25:08.728Z,68.05
2019-05-13T02:27:39.741Z,68.13
2019-05-13T02:30:10.925Z,68.03
2019-05-13T02:32:42.814Z,68.00
2019-05-13T02:35:14.350Z,67.67
2019-05-13T02:37:45.397Z,68.06
2019-05-13T02:40:16.525Z,68.04
2019-05-13T02:42:47.324Z,67.77
2019-05-13T02:45:19.139Z,67.59
2019-05-13T02:47:52.136Z,67.56
2019-05-13T02:50:23.264Z,67.12
2019-05-13T02:52:54.481Z,67.07
2019-05-13T02:55:25.546Z,66.97
2019-05-13T02:57:56.934Z,67.05
2019-05-13T03:00:28.173Z,67.25
2019-05-13T03:03:02.920Z,68.41
2019-05-13T03:05:32.452Z,68.41
2019-05-13T03:08:03.748Z,68.53
2019-05-13T03:10:34.996Z,68.80
2019-05-13T03:13:06.245Z,69.08
2019-05-13T03:15:46.370Z,68.86
2019-05-13T03:18:18.349Z,68.92
2019-05-13T03:20:52.651Z,69.06
2019-05-13T03:23:22.922Z,68.54
2019-05-13T03:25:54.490Z,68.68
2019-05-13T03:28:25.757Z,68.18
2019-05-13T03:30:57.370Z,68.06
2019-05-13T03:33:28.921Z,67.81
2019-05-13T03:36:05.663Z,68.17
2019-05-13T03:38:33.650Z,68.56
2019-05-13T03:41:07.529Z,68.50
2019-05-13T03:43:43.037Z,69.46
2019-05-13T03:46:14.168Z,69.24
2019-05-13T03:48:48.545Z,69.28
2019-05-13T03:51:22.162Z,70.33
2019-05-13T03:53:54.264Z,71.14
2019-05-13T03:56:25.701Z,71.97
2019-05-13T03:58:56.871Z,72.39
2019-05-13T04:01:28.444Z,72.71
2019-05-13T04:04:02.956Z,73.36
2019-05-13T04:06:33.168Z,72.73
2019-05-13T04:09:20.539Z,71.79
2019-05-13T04:11:42.343Z,70.23
2019-05-13T04:14:12.995Z,70.15
2019-05-13T04:16:44.354Z,69.70
2019-05-13T04:19:15.889Z,68.54
2019-05-13T04:21:47.219Z,68.17
2019-05-13T04:24:18.284Z,67.55
2019-05-13T04:26:53.036Z,67.17
2019-05-13T04:29:23.734Z,67.05
2019-05-13T04:31:54.790Z,66.78
2019-05-13T04:34:26.505Z,66.71
2019-05-13T04:36:57.744Z,66.65
2019-05-13T04:39:41.847Z,66.46
2019-05-13T04:42:02.596Z,67.36
2019-05-13T04:44:33.931Z,66.98
2019-05-13T04:47:05.323Z,66.94
2019-05-13T04:49:36.919Z,66.89
2019-05-13T04:52:08.294Z,66.34
2019-05-13T04:54:39.544Z,66.17
2019-05-13T04:57:12.402Z,65.74
2019-05-13T04:59:44.634Z,65.99
2019-05-13T05:02:49.639Z,66.01
2019-05-13T05:05:47.293Z,66.15
2019-05-13T05:08:48.552Z,65.44
2019-05-13T05:11:57.535Z,65.24
2019-05-13T05:14:58.062Z,63.53
2019-05-13T05:18:14.802Z,63.04
2019-05-13T05:21:06.092Z,63.04
2019-05-13T05:23:58.633Z,58.76
2019-05-13T05:27:25.301Z,58.76
2019-05-13T05:30:48.865Z,58.66
2019-05-13T05:33:41.187Z,62.68
2019-05-13T05:36:38.355Z,62.68
2019-05-13T05:39:22.801Z,64.44
2019-05-13T05:41:56.081Z,64.13
2019-05-13T05:44:32.111Z,63.89
2019-05-13T05:47:04.644Z,64.25
2019-05-13T05:49:37.259Z,64.52
2019-05-13T05:52:08.825Z,65.05
2019-05-13T05:54:42.231Z,65.13
2019-05-13T05:57:13.497Z,65.04
2019-05-13T05:59:44.632Z,64.11
2019-05-13T06:02:17.311Z,62.46
2019-05-13T06:04:51.996Z,60.89
2019-05-13T06:07:24.017Z,59.58
2019-05-13T06:09:55.309Z,58.81
2019-05-13T06:12:27.626Z,60.16
2019-05-13T06:15:02.408Z,60.32
2019-05-13T06:17:32.639Z,60.38
2019-05-13T06:20:04.729Z,61.09
2019-05-13T06:22:35.905Z,62.09
2019-05-13T06:25:07.478Z,62.09
2019-05-13T06:27:38.718Z,62.33
2019-05-13T06:30:12.351Z,62.06
2019-05-13T06:32:42.602Z,61.02
2019-05-13T06:35:13.705Z,61.02
2019-05-13T06:37:45.193Z,61.66
2019-05-13T06:40:16.237Z,61.87
2019-05-13T06:42:47.263Z,61.87
2019-05-13T06:45:18.597Z,61.94
2019-05-13T06:47:52.110Z,61.69
2019-05-13T06:50:22.564Z,61.31
2019-05-13T06:52:53.625Z,61.83
2019-05-13T06:55:24.945Z,61.92
2019-05-13T06:57:56.302Z,61.78
2019-05-13T07:00:27.360Z,61.78
2019-05-13T07:02:58.167Z,61.61
2019-05-13T07:05:31.640Z,61.55
2019-05-13T07:08:02.258Z,61.19
2019-05-13T07:10:33.538Z,61.19
2019-05-13T07:13:04.713Z,59.90
2019-05-13T07:15:35.756Z,59.90
2019-05-13T07:18:07.317Z,58.34
2019-05-13T07:20:38.400Z,57.78
2019-05-13T07:23:12.164Z,57.73
2019-05-13T07:25:42.837Z,58.80
2019-05-13T07:28:14.340Z,59.13
2019-05-13T07:30:45.844Z,59.10
2019-05-13T07:33:17.010Z,59.18
2019-05-13T07:35:48.263Z,59.18
2019-05-13T07:38:22.246Z,59.41
2019-05-13T07:41:01.346Z,58.80
2019-05-13T07:43:32.218Z,57.97
2019-05-13T07:46:03.656Z,57.94
2019-05-13T07:48:34.823Z,59.04
2019-05-13T07:51:05.961Z,59.54
2019-05-13T07:53:36.893Z,59.54
2019-05-13T07:56:07.875Z,59.44
2019-05-13T07:58:41.651Z,59.59
2019-05-13T08:01:12.448Z,59.93
2019-05-13T08:03:44.106Z,59.93
2019-05-13T08:06:15.325Z,59.51
2019-05-13T08:08:46.674Z,59.40
2019-05-13T08:11:17.884Z,59.40
2019-05-13T08:13:51.486Z,60.06
2019-05-13T08:16:22.402Z,59.87
2019-05-13T08:18:54.571Z,59.92
2019-05-13T08:21:26.352Z,59.92
2019-05-13T08:23:57.845Z,59.33
2019-05-13T08:26:28.999Z,58.98
2019-05-13T08:29:03.121Z,58.98
2019-05-13T08:31:32.922Z,60.27
2019-05-13T08:34:04.166Z,60.22
2019-05-13T08:36:35.240Z,60.51
2019-05-13T08:39:08.604Z,60.51
2019-05-13T08:41:42.370Z,60.67
2019-05-13T08:44:13.288Z,60.98
2019-05-13T08:46:44.527Z,60.74
2019-05-13T08:49:15.809Z,60.74
2019-05-13T08:51:47.689Z,61.21
2019-05-13T08:54:21.826Z,61.21
2019-05-13T08:56:52.406Z,61.31
2019-05-13T08:59:23.589Z,61.27
2019-05-13T09:01:54.886Z,61.27
2019-05-13T09:04:26.039Z,60.31
2019-05-13T09:07:02.148Z,60.31
2019-05-13T09:09:32.864Z,60.11
2019-05-13T09:12:05.552Z,60.11
2019-05-13T09:14:37.000Z,60.45
2019-05-13T09:17:08.471Z,59.72
2019-05-13T09:19:41.404Z,59.88
2019-05-13T09:22:12.813Z,59.99
2019-05-13T09:24:45.058Z,59.99
2019-05-13T09:27:16.456Z,60.22
2019-05-13T09:29:47.803Z,59.84
2019-05-13T09:32:21.490Z,59.66
2019-05-13T09:34:52.631Z,59.56
2019-05-13T09:37:24.199Z,59.40
2019-05-13T09:39:55.112Z,59.27
2019-05-13T09:42:25.979Z,59.59
2019-05-13T09:44:57.261Z,59.11
2019-05-13T09:47:28.682Z,59.06
2019-05-13T09:49:59.944Z,58.62
2019-05-13T09:52:31.853Z,59.07
2019-05-13T09:55:03.381Z,59.32
2019-05-13T09:57:34.743Z,58.92
2019-05-13T10:00:06.690Z,58.39
2019-05-13T10:02:38.136Z,58.40
2019-05-13T10:05:11.556Z,58.31
2019-05-13T10:07:43.661Z,58.69
2019-05-13T10:10:16.557Z,58.21
2019-05-13T10:13:07.459Z,58.60
2019-05-13T10:15:22.164Z,58.01
2019-05-13T10:17:53.568Z,58.39
2019-05-13T10:20:47.624Z,57.79
2019-05-13T10:23:22.087Z,58.98
2019-05-13T10:25:55.832Z,58.45
2019-05-13T10:28:27.502Z,57.95
2019-05-13T10:30:58.873Z,57.53
2019-05-13T10:33:31.926Z,57.43
2019-05-13T10:36:04.151Z,57.22
2019-05-13T10:38:35.385Z,57.32
2019-05-13T10:41:06.967Z,57.07
2019-05-13T10:43:41.447Z,56.30
2019-05-13T10:46:12.713Z,57.09
2019-05-13T10:48:43.415Z,55.67
2019-05-13T10:51:14.527Z,55.58
2019-05-13T10:53:46.084Z,55.33
2019-05-13T10:56:16.958Z,54.39
2019-05-13T10:58:47.998Z,53.84
2019-05-13T11:01:18.810Z,53.79
2019-05-13T11:03:52.416Z,53.79
2019-05-13T11:06:22.934Z,53.25
2019-05-13T11:08:53.914Z,53.82
2019-05-13T11:11:25.395Z,53.66
2019-05-13T11:14:06.717Z,52.06
2019-05-13T11:16:29.075Z,51.36
2019-05-13T11:19:02.815Z,51.51
2019-05-13T11:21:33.610Z,51.51
2019-05-13T11:24:05.495Z,52.02
2019-05-13T11:26:36.802Z,53.48
2019-05-13T11:29:08.080Z,53.48
2019-05-13T11:31:42.495Z,53.76
2019-05-13T11:34:12.395Z,53.83
2019-05-13T11:36:43.928Z,53.83
2019-05-13T11:39:15.042Z,53.69
2019-05-13T11:41:46.236Z,54.01
2019-05-13T11:44:17.385Z,53.36
2019-05-13T11:46:52.745Z,53.36
2019-05-13T11:49:22.529Z,53.47
2019-05-13T11:51:53.739Z,53.18
2019-05-13T11:54:24.804Z,52.82
2019-05-13T11:57:02.775Z,53.46
2019-05-13T11:59:28.505Z,53.38
2019-05-13T12:02:03.939Z,52.94
2019-05-13T12:04:34.413Z,53.13
2019-05-13T12:07:05.379Z,53.86
2019-05-13T12:09:36.579Z,53.52
2019-05-13T12:12:07.778Z,53.09
2019-05-13T12:14:56.763Z,53.09
2019-05-13T12:17:14.249Z,52.98
2019-05-13T12:19:45.444Z,53.58
2019-05-13T12:22:16.577Z,53.94
2019-05-13T12:24:47.555Z,53.96
2019-05-13T12:27:18.691Z,53.96
2019-05-13T12:29:52.835Z,53.89
2019-05-13T12:32:23.100Z,53.43
2019-05-13T12:34:54.279Z,53.85
2019-05-13T12:37:25.353Z,52.82
2019-05-13T12:39:56.486Z,53.58
2019-05-13T12:42:27.756Z,53.58
2019-05-13T12:45:08.151Z,53.72
2019-05-13T12:47:31.581Z,53.53
2019-05-13T12:50:03.606Z,53.06
2019-05-13T12:52:34.868Z,53.72
2019-05-13T12:55:06.690Z,53.56
2019-05-13T12:57:37.781Z,53.54
2019-05-13T13:00:09.328Z,54.12
2019-05-13T13:02:40.491Z,53.63
2019-05-13T13:05:19.556Z,53.63
2019-05-13T13:08:12.143Z,53.61
2019-05-13T13:10:18.077Z,53.14
2019-05-13T13:12:53.105Z,53.14
2019-05-13T13:15:37.217Z,53.50
2019-05-13T13:17:55.610Z,54.78
2019-05-13T13:20:27.041Z,55.03
2019-05-13T13:22:58.354Z,55.03
2019-05-13T13:25:29.444Z,54.58
2019-05-13T13:28:10.441Z,54.89
2019-05-13T13:30:35.610Z,54.89
2019-05-13T13:33:06.958Z,54.65
2019-05-13T13:35:38.068Z,54.03
2019-05-13T13:38:09.356Z,53.97
2019-05-13T13:40:40.804Z,54.44
2019-05-13T13:43:13.206Z,54.68
2019-05-13T13:46:06.862Z,55.50
2019-05-13T13:48:17.286Z,55.60
2019-05-13T13:50:48.407Z,55.54
2019-05-13T13:53:25.185Z,55.08
2019-05-13T13:55:55.899Z,54.88
2019-05-13T13:58:25.789Z,55.40
2019-05-13T14:01:07.011Z,54.39
2019-05-13T14:03:34.022Z,54.81
2019-05-13T14:06:06.199Z,55.10
2019-05-13T14:08:36.141Z,55.62
2019-05-13T14:11:07.335Z,55.70
2019-05-13T14:13:38.473Z,55.70
2019-05-13T14:16:22.471Z,55.58
2019-05-13T14:18:42.638Z,55.90
2019-05-13T14:21:14.100Z,56.35
2019-05-13T14:23:45.567Z,57.52
2019-05-13T14:26:16.749Z,57.52
2019-05-13T14:28:48.049Z,57.69
2019-05-13T14:31:21.434Z,57.54
2019-05-13T14:33:52.236Z,57.75
2019-05-13T14:36:23.615Z,57.86
2019-05-13T14:38:54.888Z,58.09
2019-05-13T14:41:25.887Z,57.90
2019-05-13T14:43:57.415Z,58.13
2019-05-13T14:46:44.023Z,58.13
2019-05-13T14:49:01.814Z,58.38
2019-05-13T14:51:33.057Z,58.24
2019-05-13T14:54:04.544Z,58.24
2019-05-13T14:56:35.444Z,58.69
2019-05-13T14:59:06.544Z,58.74
2019-05-13T15:01:37.759Z,59.12
2019-05-13T15:04:08.968Z,59.12
2019-05-13T15:06:41.576Z,59.01
2019-05-13T15:09:12.926Z,58.98
2019-05-13T15:11:44.120Z,58.03
2019-05-13T15:14:15.346Z,57.96
2019-05-13T15:17:00.857Z,57.98
2019-05-13T15:19:19.377Z,58.31
2019-05-13T15:21:52.111Z,58.71
2019-05-13T15:24:23.532Z,58.75
2019-05-13T15:26:54.754Z,59.02
2019-05-13T15:29:25.808Z,59.13
2019-05-13T15:31:57.038Z,59.46
2019-05-13T15:34:31.650Z,59.68
2019-05-13T15:37:02.459Z,59.71
2019-05-13T15:39:33.378Z,59.78
2019-05-13T15:42:04.659Z,60.21
2019-05-13T15:44:35.659Z,60.28
2019-05-13T15:47:21.819Z,60.37
2019-05-13T15:49:39.931Z,60.19
2019-05-13T15:52:11.790Z,60.25
2019-05-13T15:54:42.987Z,60.27
2019-05-13T15:57:14.370Z,60.13
2019-05-13T15:59:45.710Z,60.05
2019-05-13T16:02:16.889Z,60.28
2019-05-13T16:04:54.055Z,60.01
2019-05-13T16:07:20.829Z,60.10
2019-05-13T16:09:52.754Z,59.64
2019-05-13T16:12:23.856Z,59.53
2019-05-13T16:14:55.036Z,59.30
2019-05-13T16:17:40.352Z,59.27
2019-05-13T16:20:01.119Z,59.36
2019-05-13T16:22:31.895Z,59.53
2019-05-13T16:25:03.166Z,59.74
2019-05-13T16:27:34.456Z,59.77
2019-05-13T16:30:05.886Z,59.41
2019-05-13T16:32:36.830Z,59.40
2019-05-13T16:35:08.354Z,58.73
2019-05-13T16:37:41.303Z,59.24
2019-05-13T16:40:12.399Z,58.75
2019-05-13T16:42:43.524Z,58.96
2019-05-13T16:45:14.729Z,58.76
2019-05-13T16:47:56.612Z,58.88
2019-05-13T16:50:18.944Z,58.77
2019-05-13T16:52:51.101Z,58.91
2019-05-13T16:55:22.500Z,58.99
2019-05-13T16:57:53.290Z,59.63
2019-05-13T17:00:24.790Z,59.84
2019-05-13T17:02:55.728Z,60.19
2019-05-13T17:05:27.116Z,60.24
2019-05-13T17:07:58.209Z,60.48
2019-05-13T17:10:31.381Z,60.98
2019-05-13T17:13:02.877Z,61.22
2019-05-13T17:15:34.311Z,61.22
2019-05-13T17:18:11.691Z,61.52
2019-05-13T17:20:38.171Z,61.81
2019-05-13T17:23:09.408Z,61.98
2019-05-13T17:25:42.343Z,61.91
2019-05-13T17:28:13.843Z,61.90
2019-05-13T17:30:45.329Z,62.22
2019-05-13T17:33:16.295Z,62.31
2019-05-13T17:35:47.367Z,62.13
2019-05-13T17:38:18.398Z,62.43
2019-05-13T17:40:50.260Z,62.49
2019-05-13T17:43:23.491Z,62.71
2019-05-13T17:45:54.537Z,63.03
2019-05-13T17:48:29.386Z,63.14
2019-05-13T17:51:01.429Z,63.73
2019-05-13T17:53:32.752Z,63.89
2019-05-13T17:56:04.139Z,64.24
2019-05-13T17:58:35.456Z,64.68
2019-05-13T18:01:06.915Z,64.88
2019-05-13T18:03:38.026Z,64.86
2019-05-13T18:06:11.329Z,64.85
2019-05-13T18:08:42.156Z,64.89
2019-05-13T18:11:13.760Z,64.77
2019-05-13T18:13:45.107Z,64.70
2019-05-13T18:16:16.390Z,64.60
2019-05-13T18:18:47.925Z,64.55
2019-05-13T18:21:19.379Z,64.76
2019-05-13T18:23:52.251Z,65.08
2019-05-13T18:26:23.521Z,65.21
2019-05-13T18:28:54.695Z,65.49
2019-05-13T18:31:25.804Z,65.68
2019-05-13T18:33:57.065Z,65.68
2019-05-13T18:36:28.286Z,65.68
2019-05-13T18:39:01.626Z,65.80
2019-05-13T18:41:34.030Z,66.51
2019-05-13T18:44:05.174Z,66.51
2019-05-13T18:46:36.239Z,66.79
2019-05-13T18:49:07.422Z,66.04
2019-05-13T18:51:38.314Z,66.28
2019-05-13T18:54:11.710Z,66.28
2019-05-13T18:56:42.420Z,66.75
2019-05-13T18:59:13.722Z,66.75
2019-05-13T19:01:44.843Z,66.92
2019-05-13T19:04:16.084Z,66.83
2019-05-13T19:06:47.396Z,66.83
2019-05-13T19:09:18.936Z,66.86
2019-05-13T19:11:51.577Z,66.69
2019-05-13T19:14:22.516Z,66.71
2019-05-13T19:16:53.631Z,67.03
2019-05-13T19:19:24.741Z,67.29
2019-05-13T19:21:55.797Z,67.54
2019-05-13T19:24:27.873Z,67.88
2019-05-13T19:27:01.473Z,67.88
2019-05-13T19:29:32.259Z,68.47
2019-05-13T19:32:03.363Z,68.49
2019-05-13T19:34:34.473Z,68.92
2019-05-13T19:37:05.729Z,68.99
2019-05-13T19:39:36.866Z,69.36
2019-05-13T19:42:07.955Z,69.36
2019-05-13T19:44:39.107Z,69.49
2019-05-13T19:47:12.413Z,69.65
2019-05-13T19:49:46.709Z,69.74
2019-05-13T19:52:18.156Z,70.08
2019-05-13T19:54:51.287Z,70.08
2019-05-13T19:57:22.516Z,69.90
2019-05-13T19:59:53.762Z,69.90
2019-05-13T20:02:25.093Z,69.31
2019-05-13T20:04:56.292Z,69.78
2019-05-13T20:07:31.683Z,70.03
2019-05-13T20:10:02.826Z,69.71
2019-05-13T20:12:34.474Z,69.69
2019-05-13T20:15:05.921Z,69.69
2019-05-13T20:17:36.873Z,69.36
2019-05-13T20:20:05.870Z,69.37
2019-05-13T20:22:38.758Z,69.33
2019-05-13T20:25:10.892Z,68.87
2019-05-13T20:27:42.494Z,68.87
2019-05-13T20:30:13.697Z,68.89
2019-05-13T20:32:44.643Z,68.02
2019-05-13T20:35:15.573Z,67.91
2019-05-13T20:37:47.458Z,67.77
2019-05-13T20:40:18.489Z,66.96
2019-05-13T20:42:51.535Z,66.83
2019-05-13T20:45:22.657Z,66.83
2019-05-13T20:47:53.492Z,67.44
2019-05-13T20:50:24.648Z,66.70
2019-05-13T20:52:55.775Z,66.70
2019-05-13T20:55:26.887Z,66.18
2019-05-13T20:57:58.347Z,66.16
2019-05-13T21:00:31.433Z,66.29
2019-05-13T21:03:02.926Z,66.08
2019-05-13T21:05:35.262Z,66.45
2019-05-13T21:08:06.480Z,66.31
2019-05-13T21:10:38.650Z,66.41
2019-05-13T21:13:12.218Z,66.58
2019-05-13T21:15:43.491Z,66.66
2019-05-13T21:18:14.604Z,67.30
2019-05-13T21:20:45.945Z,67.30
2019-05-13T21:23:17.473Z,67.18
2019-05-13T21:25:50.938Z,67.62
2019-05-13T21:28:22.165Z,68.38
2019-05-13T21:30:53.543Z,68.71
2019-05-13T21:33:24.721Z,68.93
2019-05-13T21:35:55.871Z,69.25
2019-05-13T21:38:27.136Z,69.23
2019-05-13T21:40:58.322Z,69.28
2019-05-13T21:43:32.130Z,69.13
2019-05-13T21:46:02.458Z,68.99
2019-05-13T21:48:33.502Z,68.51
2019-05-13T21:51:04.463Z,68.73
2019-05-13T21:53:33.319Z,68.88
2019-05-13T21:56:04.558Z,69.17
2019-05-13T21:58:35.607Z,69.65
2019-05-13T22:01:06.676Z,70.14
2019-05-13T22:03:37.743Z,70.56
2019-05-13T22:06:10.948Z,70.85
2019-05-13T22:08:41.845Z,71.26
2019-05-13T22:11:12.934Z,71.70
2019-05-13T22:13:43.795Z,72.11
2019-05-13T22:16:14.849Z,72.32
2019-05-13T22:18:45.839Z,72.69
2019-05-13T22:21:16.686Z,72.99
2019-05-13T22:23:47.702Z,73.45
2019-05-13T22:26:18.655Z,74.26
2019-05-13T22:28:51.216Z,74.57
2019-05-13T22:31:23.368Z,75.09
2019-05-13T22:33:54.744Z,75.13
2019-05-13T22:36:25.834Z,75.41
2019-05-13T22:38:56.967Z,75.51
2019-05-13T22:41:27.804Z,75.62
2019-05-13T22:43:59.138Z,75.88
2019-05-13T22:46:32.259Z,76.03
2019-05-13T22:49:03.848Z,76.30
2019-05-13T22:51:35.237Z,76.43
2019-05-13T22:54:06.607Z,76.32
2019-05-13T22:56:37.892Z,76.43
2019-05-13T22:59:09.164Z,76.60
2019-05-13T23:01:41.846Z,76.61
2019-05-13T23:04:13.081Z,76.32
2019-05-13T23:06:44.556Z,76.48
2019-05-13T23:09:15.638Z,76.42
2019-05-13T23:11:47.112Z,76.29
2019-05-13T23:14:18.369Z,76.85
2019-05-13T23:16:49.978Z,76.86
2019-05-13T23:19:21.735Z,76.76
2019-05-13T23:21:53.178Z,76.97
2019-05-13T23:24:25.083Z,76.75
2019-05-13T23:26:56.444Z,76.93
2019-05-13T23:29:27.548Z,76.69
2019-05-13T23:31:58.688Z,76.59
2019-05-13T23:34:31.702Z,76.68
2019-05-13T23:37:02.310Z,76.21
2019-05-13T23:39:33.624Z,76.47
2019-05-13T23:42:04.656Z,76.39
2019-05-13T23:44:35.735Z,76.49
2019-05-13T23:47:07.202Z,76.35
2019-05-13T23:49:38.758Z,76.40
2019-05-13T23:52:11.799Z,76.35
2019-05-13T23:54:43.814Z,76.56
2019-05-13T23:57:14.975Z,76.68
2019-05-13T23:59:46.242Z,77.08
